Time;durP1;ratioP1;P1;durP2;ratioP2;P2;SDS_P1;SDS_P2;PMS_P1;PMS_P2;Temp;Humidity;BMP_temperature;BMP_pressure;BME280_temperature;BME280_humidity;BME280_pressure;Samples;Min_cycle;Max_cycle;Signal;HPM_P1;HPM_P2
2022/08/03 00:00:41;;;;;;;12.68;2.90;;;;;;;22.56;58.95;101501.13;5122487;28;20789;-75
2022/08/03 00:03:13;;;;;;;12.63;2.90;;;;;;;22.53;58.98;101498.84;5115223;28;20467;-75
2022/08/03 00:05:45;;;;;;;9.43;2.70;;;;;;;22.53;58.99;101501.53;5121380;28;20444;-75
2022/08/03 00:08:17;;;;;;;12.88;3.53;;;;;;;22.53;59.24;101503.41;5113944;28;20443;-74
2022/08/03 00:10:50;;;;;;;13.10;2.80;;;;;;;22.54;59.18;101499.66;5114230;28;20436;-75
2022/08/03 00:13:23;;;;;;;12.63;3.17;;;;;;;22.53;59.10;101498.84;5121208;28;20428;-74
2022/08/03 00:15:56;;;;;;;14.48;3.80;;;;;;;22.53;58.97;101492.66;5116408;28;20426;-75
2022/08/03 00:18:28;;;;;;;10.40;3.05;;;;;;;22.54;58.96;101499.66;5114176;28;20433;-74
2022/08/03 00:21:01;;;;;;;18.73;2.63;;;;;;;22.50;59.18;101491.19;5116364;28;20925;-74
2022/08/03 00:23:33;;;;;;;12.32;3.45;;;;;;;22.50;59.19;101499.28;5114890;28;20420;-74
2022/08/03 00:26:05;;;;;;;15.65;3.28;;;;;;;22.45;59.19;101491.03;5114737;28;20428;-74
2022/08/03 00:28:39;;;;;;;13.50;2.92;;;;;;;22.47;59.25;101493.50;5111799;28;20463;-75
2022/08/03 00:31:13;;;;;;;13.20;2.75;;;;;;;22.45;59.31;101491.03;5113914;28;20810;-75
2022/08/03 00:33:46;;;;;;;6.68;2.17;;;;;;;22.44;59.32;101488.53;5117044;28;20425;-75
2022/08/03 00:36:18;;;;;;;12.65;3.63;;;;;;;22.42;59.41;101483.38;5115801;28;20424;-75
2022/08/03 00:38:50;;;;;;;12.40;2.92;;;;;;;22.41;59.42;101478.19;5114276;28;20448;-75
2022/08/03 00:41:22;;;;;;;12.85;2.85;;;;;;;22.39;59.49;101483.81;5114421;28;20495;-75
2022/08/03 00:43:56;;;;;;;12.30;2.88;;;;;;;22.37;59.54;101477.81;5118329;28;20470;-75
2022/08/03 00:46:28;;;;;;;11.68;3.28;;;;;;;22.34;59.77;101483.59;5112362;28;20863;-75
2022/08/03 00:49:02;;;;;;;9.15;2.95;;;;;;;22.27;59.75;101472.03;5115009;28;20425;-75
2022/08/03 00:51:34;;;;;;;14.88;2.55;;;;;;;22.29;59.81;101478.03;5116225;28;20452;-75
2022/08/03 00:54:06;;;;;;;12.02;3.35;;;;;;;22.29;60.06;101478.03;5113127;28;20428;-75
2022/08/03 00:56:39;;;;;;;15.60;3.28;;;;;;;22.26;59.92;101465.81;5111695;28;20525;-75
2022/08/03 00:59:14;;;;;;;8.93;3.00;;;;;;;22.27;60.05;101474.75;5116552;28;20458;-75
2022/08/03 01:01:46;;;;;;;11.73;2.92;;;;;;;22.24;59.98;101467.91;5114801;28;20450;-75
2022/08/03 01:04:18;;;;;;;13.77;3.20;;;;;;;22.22;60.05;101469.97;5116751;28;20787;-75
2022/08/03 01:06:57;;;;;;;14.77;3.70;;;;;;;22.23;60.03;101460.03;5121086;28;21863;-75
2022/08/03 01:09:42;;;;;;;17.08;3.80;;;;;;;22.13;60.07;101451.56;5121456;28;21255;-75
2022/08/03 01:12:24;;;;;;;17.17;3.33;;;;;;;22.09;60.27;101443.91;5113491;28;20462;-75
2022/08/03 01:15:05;;;;;;;10.35;3.63;;;;;;;22.14;60.17;101445.13;5113277;28;20489;-75
2022/08/03 01:17:46;;;;;;;12.32;3.00;;;;;;;22.10;60.44;101450.94;5112137;28;20466;-75
2022/08/03 01:20:20;;;;;;;14.37;3.53;;;;;;;22.02;60.59;101450.31;5112211;28;20484;-74
2022/08/03 01:23:17;;;;;;;14.50;3.83;;;;;;;22.07;60.71;101445.16;5113923;28;20436;-76
2022/08/03 01:26:13;;;;;;;14.32;3.58;;;;;;;22.07;60.47;101450.53;5113531;28;20435;-74
2022/08/03 01:29:08;;;;;;;8.85;4.15;;;;;;;22.06;60.54;101444.34;5115874;28;20479;-74
2022/08/03 01:31:48;;;;;;;15.57;3.78;;;;;;;21.97;60.77;101434.00;5114394;28;20751;-74
2022/08/03 01:34:22;;;;;;;14.75;3.40;;;;;;;21.95;60.74;101431.53;5116150;28;20438;-74
2022/08/03 01:36:58;;;;;;;12.50;2.95;;;;;;;22.05;60.85;101442.69;5113321;28;20541;-75
2022/08/03 01:39:32;;;;;;;9.88;3.20;;;;;;;22.07;60.62;101451.34;5112109;28;20914;-75
2022/08/03 01:42:08;;;;;;;13.98;3.55;;;;;;;22.06;60.82;101444.34;5111605;28;20452;-74
2022/08/03 01:44:44;;;;;;;12.85;3.55;;;;;;;22.07;60.77;101445.97;5112887;28;20430;-75
2022/08/03 01:47:20;;;;;;;12.73;3.60;;;;;;;22.01;60.88;101436.06;5109412;28;20469;-75
2022/08/03 01:49:53;;;;;;;12.88;3.35;;;;;;;22.02;60.84;101443.09;5121172;28;20426;-74
2022/08/03 01:52:27;;;;;;;14.52;3.13;;;;;;;22.00;61.05;101455.13;5112742;28;20520;-74
2022/08/03 01:55:01;;;;;;;11.77;3.95;;;;;;;21.95;60.87;101439.59;5116517;28;20417;-74
2022/08/03 01:57:35;;;;;;;13.13;3.53;;;;;;;21.98;61.02;101441.84;5115446;28;20452;-75
2022/08/03 02:00:09;;;;;;;18.48;3.53;;;;;;;21.96;61.04;101438.56;5113436;28;20425;-75
2022/08/03 02:02:46;;;;;;;14.35;3.33;;;;;;;21.96;61.05;101443.13;5114431;28;20442;-75
2022/08/03 02:05:20;;;;;;;15.80;3.67;;;;;;;21.96;61.05;101432.38;5120458;28;20945;-74
2022/08/03 02:07:54;;;;;;;16.48;4.30;;;;;;;21.92;61.18;101431.94;5115914;28;20445;-74
2022/08/03 02:10:27;;;;;;;17.73;3.85;;;;;;;21.91;61.37;101435.69;5110857;28;20436;-74
2022/08/03 02:13:03;;;;;;;17.73;3.20;;;;;;;21.87;61.29;101435.28;5113038;28;20427;-74
2022/08/03 02:15:37;;;;;;;13.90;3.70;;;;;;;21.86;61.54;101430.94;5113787;28;20458;-74
2022/08/03 02:18:12;;;;;;;18.58;4.38;;;;;;;21.82;61.43;101427.00;5110062;28;20413;-74
2022/08/03 02:20:46;;;;;;;14.82;3.65;;;;;;;21.82;61.57;101421.63;5119273;28;20434;-75
2022/08/03 02:23:18;;;;;;;17.58;4.43;;;;;;;21.82;61.46;101420.81;5113586;28;20425;-74
2022/08/03 02:25:57;;;;;;;19.05;4.47;;;;;;;21.80;61.63;101415.66;5111527;28;20440;-75
2022/08/03 02:28:35;;;;;;;15.88;3.58;;;;;;;21.78;61.61;101414.19;5113283;28;20430;-75
2022/08/03 02:31:13;;;;;;;18.70;4.05;;;;;;;21.78;61.68;101425.78;5112259;28;20522;-75
2022/08/03 02:33:51;;;;;;;16.30;3.10;;;;;;;21.77;61.78;101417.91;5117787;28;20443;-75
2022/08/03 02:36:28;;;;;;;18.02;3.95;;;;;;;21.76;61.72;101414.41;5115029;28;20437;-75
2022/08/03 02:39:02;;;;;;;25.85;4.03;;;;;;;21.76;61.79;101421.63;5112361;28;20482;-75
2022/08/03 02:41:52;;;;;;;10.83;3.73;;;;;;;21.71;61.92;101413.38;5113353;28;20730;-75
2022/08/03 02:44:26;;;;;;;16.55;4.35;;;;;;;21.72;61.98;101415.84;5112519;28;20409;-75
2022/08/03 02:47:04;;;;;;;19.75;4.57;;;;;;;21.70;61.87;101417.91;5112389;28;20454;-75
2022/08/03 02:49:40;;;;;;;19.65;4.60;;;;;;;21.55;62.14;101385.88;5114439;28;20427;-74
2022/08/03 02:52:14;;;;;;;21.00;3.88;;;;;;;21.67;62.05;101412.16;5109824;28;20414;-76
2022/08/03 02:54:48;;;;;;;17.60;4.35;;;;;;;21.57;61.92;101397.28;5110828;28;20818;-75
2022/08/03 02:57:21;;;;;;;16.75;4.10;;;;;;;21.68;62.00;101413.78;5120432;28;20905;-74
2022/08/03 02:59:55;;;;;;;20.17;4.00;;;;;;;21.67;62.18;101412.16;5113285;28;20527;-75
2022/08/03 03:02:29;;;;;;;16.80;3.65;;;;;;;21.66;62.19;101418.56;5112350;28;20397;-74
2022/08/03 03:05:04;;;;;;;15.67;3.17;;;;;;;21.64;62.17;101406.13;5112632;28;20784;-75
2022/08/03 03:07:37;;;;;;;17.80;4.00;;;;;;;21.56;62.23;101408.25;5112948;28;20440;-75
2022/08/03 03:10:10;;;;;;;21.40;5.15;;;;;;;21.59;62.22;101410.50;5113070;28;20523;-75
2022/08/03 03:12:44;;;;;;;23.10;5.20;;;;;;;21.58;62.37;101411.53;5113946;28;20428;-75
2022/08/03 03:15:17;;;;;;;18.05;4.47;;;;;;;21.56;62.45;101410.94;5112250;28;20968;-75
2022/08/03 03:17:51;;;;;;;21.98;4.80;;;;;;;21.54;62.36;101407.63;5113160;28;20414;-75
2022/08/03 03:20:26;;;;;;;17.95;4.10;;;;;;;21.37;62.44;101378.50;5110747;28;20963;-75
2022/08/03 03:23:00;;;;;;;20.90;3.90;;;;;;;21.28;62.45;101368.97;5120001;28;20865;-75
2022/08/03 03:25:33;;;;;;;23.52;4.45;;;;;;;21.41;62.59;101386.97;5112520;28;20425;-75
2022/08/03 03:28:06;;;;;;;24.85;4.70;;;;;;;21.46;62.73;101405.94;5113720;28;21040;-75
2022/08/03 03:30:38;;;;;;;14.50;3.83;;;;;;;21.47;62.48;101406.81;5110806;28;20426;-75
2022/08/03 03:33:12;;;;;;;20.00;4.20;;;;;;;21.39;62.62;101407.81;5111552;28;20432;-75
2022/08/03 03:35:46;;;;;;;21.05;3.83;;;;;;;21.46;62.67;101405.94;5111906;28;20433;-75
2022/08/03 03:38:19;;;;;;;17.98;5.13;;;;;;;21.45;62.76;101407.00;5114707;28;20428;-75
2022/08/03 03:40:51;;;;;;;19.88;4.82;;;;;;;21.44;62.79;101413.41;5114222;28;20479;-75
2022/08/03 03:43:24;;;;;;;19.75;4.40;;;;;;;21.44;62.66;101405.34;5113922;28;20447;-75
2022/08/03 03:45:58;;;;;;;16.58;3.70;;;;;;;21.41;62.62;101408.44;5113724;28;20433;-75
2022/08/03 03:48:30;;;;;;;23.38;5.22;;;;;;;21.41;62.88;101403.09;5116997;28;20420;-76
2022/08/03 03:51:04;;;;;;;20.15;4.70;;;;;;;21.38;62.88;101404.31;5116225;28;20431;-75
2022/08/03 03:53:36;;;;;;;26.77;5.28;;;;;;;21.35;62.97;101412.78;5116186;28;20464;-75
2022/08/03 03:56:09;;;;;;;16.58;4.05;;;;;;;21.34;63.02;101412.97;5114228;28;20406;-75
2022/08/03 03:58:42;;;;;;;16.40;4.35;;;;;;;21.23;62.88;101400.16;5124182;28;20877;-75
2022/08/03 04:01:14;;;;;;;17.88;4.80;;;;;;;21.26;63.15;101415.88;5113260;28;20831;-75
2022/08/03 04:03:46;;;;;;;16.48;4.40;;;;;;;21.28;63.22;101413.81;5116654;28;20424;-75
2022/08/03 04:12:02;;;;;;;19.87;4.83;;;;;;;21.29;63.22;101415.44;5114558;28;20456;-74
2022/08/03 04:14:37;;;;;;;22.00;5.18;;;;;;;21.28;63.21;101416.50;5118646;28;20901;-74
2022/08/03 04:17:12;;;;;;;20.57;5.50;;;;;;;21.30;63.22;101419.78;5112673;28;20766;-74
2022/08/03 04:19:50;;;;;;;20.92;5.40;;;;;;;21.30;63.15;101417.09;5115759;28;20449;-75
2022/08/03 04:22:30;;;;;;;16.63;4.60;;;;;;;21.23;63.06;101406.34;5114190;28;20455;-75
2022/08/03 04:25:08;;;;;;;23.75;5.20;;;;;;;21.34;63.14;101424.56;5115386;28;20881;-75
2022/08/03 04:27:42;;;;;;;18.92;4.93;;;;;;;21.37;63.02;101426.03;5112960;28;20432;-75
2022/08/03 04:30:15;;;;;;;16.17;5.38;;;;;;;21.38;63.10;101420.44;5116078;28;20430;-75
2022/08/03 04:32:50;;;;;;;20.58;4.80;;;;;;;21.43;63.28;101427.91;5125565;28;20905;-75
2022/08/03 04:35:25;;;;;;;19.38;4.88;;;;;;;21.47;63.14;101434.50;5130702;28;20447;-75
2022/08/03 04:38:03;;;;;;;17.63;5.57;;;;;;;21.49;63.29;101428.91;5130159;28;20561;-75
2022/08/03 04:40:37;;;;;;;17.40;5.05;;;;;;;21.50;63.34;101428.72;5127984;28;20416;-74
2022/08/03 04:43:10;;;;;;;22.73;5.17;;;;;;;21.50;63.32;101439.47;5127496;28;20776;-76
2022/08/03 04:45:43;;;;;;;17.90;5.07;;;;;;;21.54;63.39;101440.69;5130648;28;20458;-76
2022/08/03 04:48:16;;;;;;;20.38;5.80;;;;;;;21.57;63.42;101437.59;5130495;28;20423;-77
2022/08/03 04:50:48;;;;;;;26.47;5.73;;;;;;;21.60;63.39;101439.84;5130473;28;20429;-77
2022/08/03 04:53:22;;;;;;;18.77;5.93;;;;;;;21.65;63.41;101436.56;5130187;28;20428;-76
2022/08/03 04:55:55;;;;;;;17.40;4.15;;;;;;;21.70;63.29;101438.59;5129984;28;20424;-76
2022/08/03 04:58:27;;;;;;;17.98;4.75;;;;;;;21.73;63.42;101435.50;5129536;28;20413;-76
2022/08/03 05:00:59;;;;;;;22.48;5.28;;;;;;;21.75;63.38;101438.81;5130887;28;21057;-75
2022/08/03 05:03:31;;;;;;;16.25;5.18;;;;;;;21.81;63.34;101436.13;5130126;28;20409;-76
2022/08/03 05:06:04;;;;;;;15.75;6.38;;;;;;;21.88;63.26;101445.00;5128133;28;20802;-76
2022/08/03 05:08:38;;;;;;;17.75;5.72;;;;;;;21.93;63.26;101448.94;5127630;28;20954;-75
2022/08/03 05:11:10;;;;;;;16.95;6.07;;;;;;;21.96;63.03;101443.94;5128639;28;20792;-76
2022/08/03 05:13:44;;;;;;;23.50;6.57;;;;;;;21.94;62.96;101448.72;5130932;28;20470;-76
2022/08/03 05:16:16;;;;;;;22.33;5.82;;;;;;;22.05;62.89;101448.06;5130456;28;21368;-75
2022/08/03 05:18:48;;;;;;;21.60;5.80;;;;;;;22.10;63.07;101444.72;5131201;28;20466;-75
2022/08/03 05:21:21;;;;;;;17.48;5.00;;;;;;;22.12;63.10;101450.75;5135099;28;20493;-75
2022/08/03 05:23:54;;;;;;;22.40;6.00;;;;;;;22.17;62.98;101444.75;5133253;28;20442;-75
2022/08/03 05:26:26;;;;;;;24.02;6.35;;;;;;;22.20;63.07;101444.31;5129693;28;20472;-73
2022/08/03 05:28:59;;;;;;;27.83;6.30;;;;;;;22.26;63.08;101448.84;5130056;28;20459;-74
2022/08/03 05:31:31;;;;;;;21.87;6.43;;;;;;;22.35;62.90;101446.75;5117651;28;20561;-73
2022/08/03 05:34:03;;;;;;;22.15;5.32;;;;;;;22.46;62.95;101444.22;5129663;28;20435;-72
2022/08/03 05:36:36;;;;;;;20.55;5.45;;;;;;;22.56;62.55;101447.28;5126822;28;20427;-74
2022/08/03 05:39:09;;;;;;;20.83;5.13;;;;;;;22.64;62.66;101446.22;5127485;28;20530;-75
2022/08/03 05:41:42;;;;;;;21.40;4.97;;;;;;;22.71;62.55;101438.94;5129861;28;20494;-74
2022/08/03 05:44:14;;;;;;;19.27;4.57;;;;;;;23.19;61.82;101445.69;5130007;28;20400;-74
2022/08/03 05:46:46;;;;;;;24.40;5.82;;;;;;;23.52;61.43;101447.31;5122967;28;20962;-73
2022/08/03 05:49:19;;;;;;;14.48;4.82;;;;;;;23.88;60.94;101428.53;5129560;28;20531;-74
2022/08/03 05:51:51;;;;;;;15.85;4.78;;;;;;;24.65;60.18;101441.50;5128965;28;20416;-74
2022/08/03 05:54:25;;;;;;;15.55;4.38;;;;;;;25.49;59.02;101436.13;5130162;28;20876;-74
2022/08/03 05:56:57;;;;;;;21.52;4.10;;;;;;;25.87;58.59;101442.97;5126874;28;20442;-74
2022/08/03 05:59:29;;;;;;;19.85;4.45;;;;;;;26.59;57.56;101432.53;5129490;28;20424;-74
2022/08/03 06:02:01;;;;;;;26.05;5.40;;;;;;;26.95;57.00;101446.75;5130103;28;20426;-74
2022/08/03 06:04:34;;;;;;;24.90;4.10;;;;;;;27.24;56.46;101446.72;5128839;28;20412;-74
2022/08/03 06:07:06;;;;;;;20.67;4.30;;;;;;;27.60;55.65;101439.97;5121404;28;21104;-74
2022/08/03 06:09:40;;;;;;;14.98;4.05;;;;;;;27.55;55.66;101438.00;5122325;28;21037;-75
2022/08/03 06:12:12;;;;;;;23.60;4.20;;;;;;;27.70;55.21;101439.31;5128569;28;20419;-74
2022/08/03 06:14:45;;;;;;;22.45;4.20;;;;;;;27.97;54.71;101445.69;5127156;28;20916;-75
2022/08/03 06:17:17;;;;;;;23.23;4.55;;;;;;;27.83;54.59;101444.38;5126146;28;20511;-74
2022/08/03 06:19:52;;;;;;;14.50;4.68;;;;;;;27.74;54.43;101445.84;5127419;28;20427;-75
2022/08/03 06:22:24;;;;;;;18.60;4.40;;;;;;;27.91;53.94;101441.25;5130428;28;20960;-75
2022/08/03 06:24:58;;;;;;;21.25;4.82;;;;;;;28.03;53.64;101452.81;5128295;28;20428;-73
2022/08/03 06:27:30;;;;;;;20.77;4.43;;;;;;;28.09;53.42;101455.59;5127369;28;20424;-78
2022/08/03 06:30:03;;;;;;;19.13;4.57;;;;;;;28.16;53.31;101453.53;5126794;28;20789;-77
2022/08/03 06:32:35;;;;;;;25.30;5.37;;;;;;;28.05;53.17;101458.81;5128559;28;20518;-77
2022/08/03 06:35:09;;;;;;;21.40;4.32;;;;;;;27.86;53.05;101451.22;5128052;28;20420;-77
2022/08/03 06:37:46;;;;;;;25.85;5.57;;;;;;;27.64;53.34;101453.88;5125509;28;20855;-76
2022/08/03 06:40:27;;;;;;;14.90;4.43;;;;;;;27.36;53.46;101455.59;5128996;28;20790;-76
2022/08/03 06:43:02;;;;;;;21.05;5.10;;;;;;;27.05;53.55;101455.06;5129429;28;20404;-77
2022/08/03 06:45:35;;;;;;;23.42;5.28;;;;;;;26.90;53.69;101454.78;5149986;28;20477;-77
2022/08/03 06:48:09;;;;;;;20.43;5.10;;;;;;;26.85;53.67;101455.53;5150120;28;20427;-78
2022/08/03 06:50:43;;;;;;;22.83;4.80;;;;;;;26.77;53.74;101463.22;5148554;28;20448;-77
2022/08/03 06:53:15;;;;;;;20.10;4.83;;;;;;;26.75;53.56;101454.50;5135398;28;20416;-78
2022/08/03 06:55:49;;;;;;;25.63;4.90;;;;;;;26.91;53.35;101459.13;5128880;28;20527;-77
2022/08/03 06:58:21;;;;;;;16.95;4.85;;;;;;;27.02;53.01;101460.16;5128348;28;20424;-77
2022/08/03 07:00:54;;;;;;;18.40;4.28;;;;;;;27.16;52.80;101466.94;5128424;28;20455;-77
2022/08/03 07:03:26;;;;;;;21.17;4.27;;;;;;;27.17;52.77;101465.06;5127916;28;20442;-78
2022/08/03 07:05:58;;;;;;;13.88;3.97;;;;;;;27.62;52.26;101464.13;5127636;28;20424;-77
2022/08/03 07:08:30;;;;;;;17.98;4.43;;;;;;;27.92;51.69;101461.91;5129498;28;20840;-79
2022/08/03 07:11:04;;;;;;;21.25;5.15;;;;;;;28.22;51.26;101463.38;5127896;28;20826;-78
2022/08/03 07:13:36;;;;;;;31.25;5.28;;;;;;;28.78;50.59;101469.47;5127178;28;20434;-77
2022/08/03 07:16:09;;;;;;;20.42;4.88;;;;;;;28.87;50.32;101465.22;5125174;28;20404;-78
2022/08/03 07:18:41;;;;;;;30.40;4.70;;;;;;;28.86;50.34;101479.06;5127373;28;20448;-77
2022/08/03 07:21:15;;;;;;;28.92;6.28;;;;;;;29.00;50.24;101480.28;5134801;28;20423;-77
2022/08/03 07:23:47;;;;;;;23.38;4.65;;;;;;;29.35;49.52;101487.16;5134172;28;20435;-86
2022/08/03 07:26:21;;;;;;;23.48;4.50;;;;;;;30.05;48.62;101469.69;5131618;28;20428;-77
2022/08/03 07:28:53;;;;;;;20.45;3.83;;;;;;;30.52;48.20;101489.78;5141638;28;20425;-78
2022/08/03 07:31:26;;;;;;;20.98;4.07;;;;;;;30.51;47.99;101477.25;5134993;28;20932;-78
2022/08/03 07:33:58;;;;;;;21.63;4.43;;;;;;;30.36;48.01;101496.28;5132555;28;20424;-78
2022/08/03 07:36:32;;;;;;;21.23;4.60;;;;;;;30.51;47.86;101493.63;5130645;28;20451;-77
2022/08/03 07:39:04;;;;;;;19.95;4.15;;;;;;;30.94;47.04;101497.00;5131737;28;20478;-77
2022/08/03 07:41:38;;;;;;;21.73;4.18;;;;;;;30.84;47.15;101496.97;5130564;28;20531;-78
2022/08/03 07:44:10;;;;;;;21.70;4.57;;;;;;;30.73;47.38;101496.13;5127445;28;20431;-78
2022/08/03 07:46:43;;;;;;;23.13;4.82;;;;;;;30.68;47.24;101504.28;5130181;28;20495;-78
2022/08/03 07:49:15;;;;;;;23.67;4.13;;;;;;;30.63;47.02;101496.91;5129184;28;20428;-75
2022/08/03 07:52:46;;;;;;;26.90;4.10;;;;;;;30.66;46.95;101488.22;5125861;28;20822;-76
2022/08/03 07:54:40;;;;;;;20.05;4.55;;;;;;;30.76;46.77;101503.78;5125693;28;20412;-76
2022/08/03 07:57:13;;;;;;;24.42;4.30;;;;;;;30.71;46.85;101499.09;5128450;28;20424;-75
2022/08/03 07:59:47;;;;;;;24.10;4.87;;;;;;;30.74;46.66;101493.13;5125128;28;21159;-75
2022/08/03 08:02:19;;;;;;;21.25;3.78;;;;;;;30.95;46.51;101499.47;5126884;28;20774;-75
2022/08/03 08:04:51;;;;;;;22.98;4.40;;;;;;;31.60;45.86;101498.97;5126138;28;20431;-74
2022/08/03 08:07:25;;;;;;;16.17;3.75;;;;;;;31.92;45.00;101501.38;5128681;28;20416;-76
2022/08/03 08:09:57;;;;;;;20.80;4.07;;;;;;;32.11;44.79;101499.66;5129237;28;20420;-75
2022/08/03 08:12:31;;;;;;;22.17;3.80;;;;;;;32.42;44.39;101504.19;5128891;28;20408;-74
2022/08/03 08:15:04;;;;;;;30.00;4.13;;;;;;;32.53;44.29;101505.84;5128381;28;20448;-74
2022/08/03 08:17:45;;;;;;;18.25;3.70;;;;;;;32.60;44.29;101515.34;5128225;28;20428;-75
2022/08/03 08:20:20;;;;;;;19.15;3.90;;;;;;;32.29;44.55;101513.84;5126771;28;20501;-75
2022/08/03 08:22:52;;;;;;;18.58;3.83;;;;;;;31.84;44.45;101501.94;5128779;28;20461;-76
2022/08/03 08:25:25;;;;;;;18.25;4.05;;;;;;;31.76;44.39;101511.50;5128845;28;20878;-75
2022/08/03 08:28:01;;;;;;;18.67;4.22;;;;;;;31.70;44.83;101510.69;5129128;28;20925;-75
2022/08/03 08:30:34;;;;;;;25.80;4.63;;;;;;;31.62;44.65;101503.06;5127856;28;20475;-75
2022/08/03 08:33:06;;;;;;;18.67;4.05;;;;;;;31.41;44.71;101501.44;5126828;28;20416;-77
2022/08/03 08:35:38;;;;;;;19.08;4.18;;;;;;;31.27;44.59;101503.03;5124407;28;20877;-73
2022/08/03 08:38:11;;;;;;;21.42;4.00;;;;;;;31.15;44.69;101515.03;5124996;28;20416;-73
2022/08/03 08:40:43;;;;;;;21.65;4.35;;;;;;;30.95;44.58;101506.84;5127408;28;20435;-73
2022/08/03 08:43:17;;;;;;;19.90;3.90;;;;;;;30.84;44.60;101514.16;5127354;28;20421;-73
2022/08/03 08:45:51;;;;;;;22.13;5.03;;;;;;;30.70;44.84;101513.03;5128854;28;20951;-73
2022/08/03 08:48:27;;;;;;;20.47;4.80;;;;;;;30.74;44.67;101512.19;5130041;28;20423;-73
2022/08/03 08:51:00;;;;;;;27.63;4.45;;;;;;;30.81;44.50;101514.69;5128891;28;20434;-73
2022/08/03 08:53:37;;;;;;;16.27;3.70;;;;;;;30.96;44.26;101517.47;5128803;28;20423;-73
2022/08/03 08:56:14;;;;;;;24.60;5.88;;;;;;;30.99;44.19;101518.84;5127571;28;20412;-73
2022/08/03 08:58:51;;;;;;;20.40;4.53;;;;;;;30.97;43.97;101519.13;5128758;28;20425;-73
2022/08/03 09:01:23;;;;;;;20.87;5.07;;;;;;;30.89;44.15;101514.19;5129557;28;20507;-72
2022/08/03 09:03:55;;;;;;;20.17;4.50;;;;;;;30.99;44.24;101525.09;5127718;28;20431;-72
2022/08/03 09:06:27;;;;;;;22.27;5.03;;;;;;;31.09;43.78;101521.56;5128551;28;20431;-73
2022/08/03 09:09:00;;;;;;;23.25;4.70;;;;;;;31.13;43.72;101517.22;5129348;28;20419;-74
2022/08/03 09:11:32;;;;;;;19.52;3.78;;;;;;;31.20;43.85;101516.94;5129107;28;20427;-72
2022/08/03 09:14:06;;;;;;;18.90;4.00;;;;;;;31.37;43.34;101516.69;5128073;28;20431;-73
2022/08/03 09:16:54;;;;;;;21.02;4.00;;;;;;;31.57;43.06;101524.91;5127204;28;20911;-74
2022/08/03 09:19:28;;;;;;;19.80;3.97;;;;;;;31.82;42.85;101528.69;5128910;28;20742;-73
2022/08/03 09:22:12;;;;;;;16.17;4.47;;;;;;;32.08;42.66;101530.28;5129393;28;20996;-73
2022/08/03 09:24:56;;;;;;;16.20;4.40;;;;;;;32.24;42.51;101532.97;5123306;28;20432;-74
2022/08/03 09:27:29;;;;;;;21.45;3.97;;;;;;;32.29;42.51;101527.50;5126218;28;20408;-74
2022/08/03 09:30:12;;;;;;;20.55;3.80;;;;;;;32.20;42.45;101529.16;5126058;28;20415;-73
2022/08/03 09:32:45;;;;;;;23.77;4.37;;;;;;;32.17;42.30;101529.72;5125093;28;20534;-73
2022/08/03 09:35:25;;;;;;;21.50;3.35;;;;;;;32.22;42.14;101527.81;5126026;28;20427;-73
2022/08/03 09:38:11;;;;;;;24.50;4.35;;;;;;;32.32;42.10;101532.41;5126684;28;20456;-73
2022/08/03 09:40:45;;;;;;;22.97;4.30;;;;;;;32.31;42.09;101531.59;5120723;28;20428;-74
2022/08/03 09:43:18;;;;;;;29.55;4.43;;;;;;;32.14;42.20;101534.63;5123851;28;20438;-73
2022/08/03 09:46:01;;;;;;;19.42;3.40;;;;;;;32.15;42.11;101525.38;5124719;28;20438;-74
2022/08/03 09:48:35;;;;;;;14.80;3.70;;;;;;;32.22;41.70;101521.53;5124452;28;20430;-73
2022/08/03 09:51:07;;;;;;;19.03;3.80;;;;;;;32.33;41.82;101520.38;5126631;28;20500;-73
2022/08/03 09:53:44;;;;;;;18.20;4.10;;;;;;;32.50;41.49;101522.81;5125268;28;20427;-74
2022/08/03 09:56:16;;;;;;;27.33;4.10;;;;;;;32.56;41.33;101527.97;5123082;28;20424;-73
2022/08/03 09:58:49;;;;;;;19.55;3.55;;;;;;;32.66;41.44;101520.81;5120185;28;20436;-74
2022/08/03 10:01:33;;;;;;;20.77;3.83;;;;;;;32.78;40.91;101518.53;5118399;28;20428;-74
2022/08/03 10:04:05;;;;;;;20.75;4.10;;;;;;;32.93;40.86;101518.44;5114134;28;20431;-74
2022/08/03 10:06:38;;;;;;;20.50;3.72;;;;;;;32.92;40.53;101533.25;5112211;28;20426;-75
2022/08/03 10:09:13;;;;;;;18.67;3.35;;;;;;;32.88;40.87;101532.16;5110297;28;20860;-76
2022/08/03 10:11:47;;;;;;;25.85;4.85;;;;;;;32.94;40.46;101528.28;5117517;28;20428;-75
2022/08/03 10:14:21;;;;;;;17.88;3.80;;;;;;;32.85;40.19;101524.50;5123439;28;20495;-75
2022/08/03 10:16:54;;;;;;;22.73;4.22;;;;;;;32.88;40.34;101518.47;5127142;28;20435;-75
2022/08/03 10:19:27;;;;;;;15.33;3.93;;;;;;;32.90;40.45;101531.88;5125850;28;20503;-77
2022/08/03 10:22:10;;;;;;;25.85;3.85;;;;;;;32.94;40.24;101522.00;5127191;28;20488;-77
2022/08/03 10:24:52;;;;;;;17.67;4.00;;;;;;;32.99;40.24;101520.09;5126505;28;20917;-76
2022/08/03 10:27:26;;;;;;;22.35;4.43;;;;;;;32.90;40.06;101521.75;5127060;28;20456;-76
2022/08/03 10:30:03;;;;;;;19.15;4.03;;;;;;;33.00;40.11;101527.19;5122944;28;20419;-74
2022/08/03 10:32:42;;;;;;;18.33;3.40;;;;;;;32.98;39.75;101526.63;5118332;28;20808;-74
2022/08/03 10:35:19;;;;;;;25.17;4.45;;;;;;;32.99;39.89;101525.56;5109074;28;20879;-74
2022/08/03 10:37:56;;;;;;;18.13;4.30;;;;;;;32.97;40.02;101526.91;5118757;28;20921;-75
2022/08/03 10:40:30;;;;;;;17.88;3.78;;;;;;;32.76;39.91;101531.69;5112813;28;20432;-75
2022/08/03 10:43:07;;;;;;;19.33;4.10;;;;;;;32.69;40.00;101531.19;5113221;28;20417;-73
2022/08/03 10:45:42;;;;;;;18.30;3.30;;;;;;;32.57;40.36;101526.84;5108633;28;20425;-74
2022/08/03 10:48:17;;;;;;;19.07;3.57;;;;;;;32.50;40.41;101531.81;5114903;28;20423;-74
2022/08/03 10:50:50;;;;;;;21.35;3.83;;;;;;;32.42;40.43;101526.88;5111109;28;20425;-74
2022/08/03 10:53:36;;;;;;;17.30;4.03;;;;;;;32.43;40.37;101523.06;5113963;28;20437;-75
2022/08/03 11:00:02;;;;;;;21.75;3.47;;;;;;;32.66;40.09;101526.28;5120904;28;20410;-74
2022/08/03 11:03:17;;;;;;;23.70;4.15;;;;;;;32.54;40.04;101518.41;5114749;28;20421;-74
2022/08/03 11:05:52;;;;;;;23.52;4.40;;;;;;;32.49;39.99;101521.97;5118543;28;20484;-74
2022/08/03 11:08:30;;;;;;;22.25;3.75;;;;;;;32.40;40.07;101514.63;5113896;28;20831;-75
2022/08/03 11:11:27;;;;;;;18.48;3.55;;;;;;;32.57;40.05;101518.66;5117725;28;20420;-74
2022/08/03 11:14:03;;;;;;;16.10;3.42;;;;;;;32.74;39.56;101522.94;5120070;28;20535;-74
2022/08/03 11:16:38;;;;;;;16.00;3.50;;;;;;;32.80;39.44;101519.09;5118673;28;20429;-74
2022/08/03 11:19:13;;;;;;;16.00;3.25;;;;;;;32.87;39.67;101510.56;5112223;28;20418;-75
2022/08/03 11:21:57;;;;;;;22.80;3.38;;;;;;;32.92;39.13;101500.41;5116484;28;20660;-74
2022/08/03 11:25:00;;;;;;;17.60;3.25;;;;;;;33.02;39.09;101503.09;5115116;28;20412;-74
2022/08/03 11:27:33;;;;;;;22.02;3.70;;;;;;;33.14;38.85;101502.75;5114792;28;20420;-74
2022/08/03 11:30:09;;;;;;;19.15;3.95;;;;;;;33.30;38.77;101514.38;5119175;28;20422;-73
2022/08/03 11:33:00;;;;;;;20.80;4.13;;;;;;;33.35;38.88;101492.41;5112195;28;20508;-74
2022/08/03 11:35:35;;;;;;;22.77;3.30;;;;;;;33.50;38.49;101508.72;5117437;28;20823;-74
2022/08/03 11:38:12;;;;;;;21.95;4.22;;;;;;;33.37;38.38;101482.00;5118301;28;20519;-73
2022/08/03 11:40:47;;;;;;;18.75;4.00;;;;;;;33.41;38.62;101504.16;5116265;28;20529;-74
2022/08/03 11:43:45;;;;;;;22.63;3.70;;;;;;;33.28;38.39;101500.97;5117570;28;20468;-73
2022/08/03 11:46:18;;;;;;;21.30;3.80;;;;;;;33.13;38.65;101503.00;5118265;28;20416;-74
2022/08/03 11:48:51;;;;;;;14.73;3.30;;;;;;;32.98;38.73;101496.53;5115471;28;20426;-74
2022/08/03 11:51:28;;;;;;;22.97;4.20;;;;;;;33.07;38.63;101502.22;5115079;28;20526;-74
2022/08/03 11:54:02;;;;;;;22.02;4.10;;;;;;;32.99;38.83;101498.19;5114571;28;20512;-74
2022/08/03 11:56:46;;;;;;;15.85;3.28;;;;;;;33.13;38.18;101503.00;5123951;28;20785;-74
2022/08/03 11:59:18;;;;;;;18.65;3.88;;;;;;;33.28;37.96;101502.88;5115507;28;20771;-74
2022/08/03 12:01:51;;;;;;;25.42;3.78;;;;;;;33.39;37.93;101512.66;5116860;28;20429;-74